TJ-0002 weather

Dusti Airfield
Dusti, Khatlon Region, Tajikistan

Public forecast

Using degrees Celsius for public forecast. Weather courtesy of forecast.io.

Closest aviation weather report (METAR) to Dusti Airfield

Closest report is Qurghonteppa International Airport, 31.0 nm (57.4 km) NNE. Retrieved 2019/12/15 18:30 UTC (0 seconds ago):

UTDT 151830Z 09001MPS 8000 NSC 03/00 Q1024 R35/////// RMK QFE728/0971

Closest aviation forecast (TAF) to Dusti Airfield

Forecast is more than 12 hours old.

Closest forecast is Konduz Airport, 43.7 nm (80.9 km) SSE. Retrieved 2013/10/13 06:00 UTC (6 years ago):

TAF OAUZ 130505Z 1306/1406 17005KT 9999 NSW FEW100 SCT150 BECMG 1307/1309 35005KT 9999 NSW FEW080 BY OAMS